createdAt,value
2023-07-26T00:01:30.388Z,99217.20
2023-07-26T00:03:21.721Z,99216.64
2023-07-26T00:05:13.196Z,99218.05
2023-07-26T00:07:04.993Z,99215.11
2023-07-26T00:08:56.570Z,99217.00
2023-07-26T00:10:48.611Z,99220.98
2023-07-26T00:12:40.005Z,99222.90
2023-07-26T00:14:31.821Z,99226.73
2023-07-26T00:16:23.364Z,99224.10
2023-07-26T00:18:14.718Z,99225.20
2023-07-26T00:20:06.928Z,99230.39
2023-07-26T00:21:58.416Z,99230.61
2023-07-26T00:23:49.915Z,99233.69
2023-07-26T00:25:41.595Z,99236.54
2023-07-26T00:27:35.373Z,99238.39
2023-07-26T00:29:27.047Z,99237.54
2023-07-26T00:31:19.016Z,99238.22
2023-07-26T00:33:10.651Z,99240.11
2023-07-26T00:35:02.529Z,99248.14
2023-07-26T00:36:54.324Z,99245.69
2023-07-26T00:38:45.997Z,99245.70
2023-07-26T00:40:38.311Z,99244.91
2023-07-26T00:42:29.675Z,99243.23
2023-07-26T00:44:21.190Z,99249.70
2023-07-26T00:46:13.573Z,99251.02
2023-07-26T00:48:05.667Z,99257.23
2023-07-26T00:49:57.234Z,99258.38
2023-07-26T00:51:48.681Z,99252.63
2023-07-26T00:53:40.325Z,99251.83
2023-07-26T00:55:32.122Z,99255.70
2023-07-26T00:57:23.745Z,99260.89
2023-07-26T00:59:15.459Z,99262.20
2023-07-26T01:01:07.334Z,99264.20
2023-07-26T01:02:59.185Z,99264.43
2023-07-26T01:04:51.680Z,99264.30
2023-07-26T01:06:48.548Z,99264.38
2023-07-26T01:08:48.726Z,99269.34
2023-07-26T01:10:45.067Z,99271.27
2023-07-26T01:13:03.719Z,99271.02
2023-07-26T01:14:59.478Z,99274.73
2023-07-26T01:16:51.400Z,99276.73
2023-07-26T01:18:42.826Z,99276.80
2023-07-26T01:20:34.321Z,99274.34
2023-07-26T01:22:25.913Z,99271.71
2023-07-26T01:24:17.374Z,99273.70
2023-07-26T01:26:08.708Z,99275.55
2023-07-26T01:28:00.171Z,99280.67
2023-07-26T01:29:55.820Z,99278.64
2023-07-26T01:31:48.226Z,99282.11
2023-07-26T01:33:39.913Z,99285.55
2023-07-26T01:35:31.628Z,99283.21
2023-07-26T01:37:23.623Z,99278.86
2023-07-26T01:39:17.039Z,99276.55
2023-07-26T01:41:08.732Z,99279.00
2023-07-26T01:43:00.182Z,99280.65
2023-07-26T01:44:52.164Z,99281.34
2023-07-26T01:46:44.004Z,99285.64
2023-07-26T01:48:35.665Z,99279.68
2023-07-26T01:50:27.223Z,99281.52
2023-07-26T01:52:18.628Z,99281.89
2023-07-26T01:54:11.416Z,99284.38
2023-07-26T01:56:03.441Z,99285.84
2023-07-26T01:57:54.869Z,99288.42
2023-07-26T01:59:46.534Z,99289.42
2023-07-26T02:01:38.310Z,99288.13
2023-07-26T02:03:29.891Z,99290.95
2023-07-26T02:05:21.209Z,99288.89
2023-07-26T02:07:13.198Z,99287.28
2023-07-26T02:09:05.348Z,99285.48
2023-07-26T02:10:56.999Z,99285.44
2023-07-26T02:12:48.356Z,99284.23
2023-07-26T02:14:40.191Z,99285.27
2023-07-26T02:16:32.002Z,99286.48
2023-07-26T02:18:23.673Z,99285.83
2023-07-26T02:20:15.703Z,99286.47
2023-07-26T02:22:07.485Z,99292.11
2023-07-26T02:23:59.088Z,99295.75
2023-07-26T02:25:50.611Z,99294.82
2023-07-26T02:27:42.207Z,99294.63
2023-07-26T02:29:35.840Z,99299.48
2023-07-26T02:31:27.167Z,99303.38
2023-07-26T02:33:18.890Z,99310.66
2023-07-26T02:35:10.521Z,99315.16
2023-07-26T02:37:02.236Z,99316.11
2023-07-26T02:38:53.959Z,99316.39
2023-07-26T02:40:45.422Z,99316.70
2023-07-26T02:42:37.203Z,99314.77
2023-07-26T02:44:29.032Z,99318.52
2023-07-26T02:46:20.911Z,99320.39
2023-07-26T02:48:12.620Z,99327.21
2023-07-26T02:50:05.784Z,99325.02
2023-07-26T02:51:57.540Z,99332.09
2023-07-26T02:53:49.328Z,99333.84
2023-07-26T02:55:42.962Z,99338.64
2023-07-26T02:57:34.681Z,99341.29
2023-07-26T02:59:26.306Z,99343.30
2023-07-26T03:01:18.127Z,99346.08
2023-07-26T03:03:09.641Z,99345.41
2023-07-26T03:05:01.685Z,99344.48
2023-07-26T03:06:53.586Z,99342.12
2023-07-26T03:08:45.640Z,99344.64
2023-07-26T03:10:37.181Z,99353.00
2023-07-26T03:12:29.054Z,99348.04
2023-07-26T03:14:20.548Z,99349.23
2023-07-26T03:16:12.227Z,99350.02
2023-07-26T03:18:05.132Z,99351.05
2023-07-26T03:19:56.727Z,99351.67
2023-07-26T03:21:48.414Z,99355.90
2023-07-26T03:23:40.095Z,99356.13
2023-07-26T03:25:31.822Z,99357.80
2023-07-26T03:27:24.843Z,99361.44
2023-07-26T03:29:16.379Z,99361.69
2023-07-26T03:31:08.291Z,99364.31
2023-07-26T03:33:00.086Z,99363.92
2023-07-26T03:34:51.416Z,99372.02
2023-07-26T03:36:43.041Z,99374.48
2023-07-26T03:38:34.757Z,99373.55
2023-07-26T03:40:26.438Z,99379.16
2023-07-26T03:42:17.874Z,99382.26
2023-07-26T03:44:09.570Z,99384.99
2023-07-26T03:46:01.459Z,99387.86
2023-07-26T03:47:53.235Z,99389.42
2023-07-26T03:49:44.821Z,99393.23
2023-07-26T03:51:36.195Z,99391.74
2023-07-26T03:53:28.257Z,99397.38
2023-07-26T03:55:20.062Z,99401.94
2023-07-26T03:57:11.891Z,99403.30
2023-07-26T03:59:03.734Z,99406.72
2023-07-26T04:00:55.419Z,99410.11
2023-07-26T04:02:47.138Z,99413.88
2023-07-26T04:04:38.751Z,99414.89
2023-07-26T04:06:31.171Z,99418.11
2023-07-26T04:08:23.006Z,99423.98
2023-07-26T04:10:14.719Z,99423.20
2023-07-26T04:12:07.047Z,99419.77
2023-07-26T04:13:58.407Z,99425.95
2023-07-26T04:15:50.097Z,99428.72
2023-07-26T04:17:41.883Z,99432.63
2023-07-26T04:19:33.963Z,99437.68
2023-07-26T04:21:25.565Z,99438.34
2023-07-26T04:23:17.200Z,99442.04
2023-07-26T04:25:09.094Z,99441.83
2023-07-26T04:27:00.392Z,99441.70
2023-07-26T04:28:51.962Z,99443.98
2023-07-26T04:30:43.545Z,99449.65
2023-07-26T04:32:35.387Z,99452.75
2023-07-26T04:34:27.124Z,99456.73
2023-07-26T04:36:18.800Z,99457.52
2023-07-26T04:38:10.588Z,99460.87
2023-07-26T04:40:02.282Z,99467.64
2023-07-26T04:41:54.679Z,99465.14
2023-07-26T04:43:46.339Z,99466.64
2023-07-26T04:45:37.611Z,99468.90
2023-07-26T04:47:29.174Z,99467.08
2023-07-26T04:49:20.403Z,99469.72
2023-07-26T04:51:12.325Z,99469.42
2023-07-26T04:53:03.625Z,99468.90
2023-07-26T04:54:55.266Z,99473.20
2023-07-26T04:56:46.826Z,99470.23
2023-07-26T04:58:38.448Z,99471.33
2023-07-26T05:00:29.821Z,99475.14
2023-07-26T05:02:21.248Z,99474.57
2023-07-26T05:04:12.586Z,99478.10
2023-07-26T05:06:04.142Z,99483.91
2023-07-26T05:07:55.868Z,99482.77
2023-07-26T05:09:47.407Z,99486.48
2023-07-26T05:11:39.083Z,99489.42
2023-07-26T05:13:30.428Z,99492.50
2023-07-26T05:15:22.167Z,99492.92
2023-07-26T05:17:14.444Z,99497.77
2023-07-26T05:19:06.035Z,99495.22
2023-07-26T05:20:57.755Z,99493.54
2023-07-26T05:22:49.549Z,99497.60
2023-07-26T05:24:41.324Z,99502.94
2023-07-26T05:26:32.831Z,99501.23
2023-07-26T05:28:24.611Z,99502.50
2023-07-26T05:30:19.323Z,99499.73
2023-07-26T05:32:10.720Z,99503.14
2023-07-26T05:34:02.191Z,99505.83
2023-07-26T05:35:53.919Z,99506.26
2023-07-26T05:37:45.608Z,99511.25
2023-07-26T05:39:37.228Z,99518.34
2023-07-26T05:41:32.947Z,99518.94
2023-07-26T05:43:24.996Z,99523.83
2023-07-26T05:45:16.840Z,99525.02
2023-07-26T05:47:08.204Z,99526.44
2023-07-26T05:48:59.623Z,99521.73
2023-07-26T05:50:51.251Z,99525.48
2023-07-26T05:52:45.161Z,99524.27
2023-07-26T05:54:37.228Z,99523.32
2023-07-26T05:56:28.940Z,99526.59
2023-07-26T05:58:20.945Z,99530.55
2023-07-26T06:00:15.307Z,99531.66
2023-07-26T06:02:07.373Z,99535.05
2023-07-26T06:04:01.094Z,99541.82
2023-07-26T06:05:52.787Z,99549.14
2023-07-26T06:07:44.587Z,99546.59
2023-07-26T06:09:36.740Z,99549.52
2023-07-26T06:11:29.142Z,99553.96
2023-07-26T06:13:21.765Z,99553.48
2023-07-26T06:15:13.558Z,99559.42
2023-07-26T06:17:05.632Z,99565.84
2023-07-26T06:18:58.941Z,99568.44
2023-07-26T06:20:50.413Z,99571.80
2023-07-26T06:22:42.297Z,99571.23
2023-07-26T06:24:34.060Z,99572.42
2023-07-26T06:26:25.484Z,99571.01
2023-07-26T06:28:16.994Z,99568.35
2023-07-26T06:30:09.057Z,99572.90
2023-07-26T06:32:00.611Z,99571.19
2023-07-26T06:33:52.244Z,99578.33
2023-07-26T06:35:43.970Z,99582.43
2023-07-26T06:37:36.560Z,99582.86
2023-07-26T06:39:28.479Z,99583.23
2023-07-26T06:41:20.204Z,99580.23
2023-07-26T06:43:11.920Z,99577.66
2023-07-26T06:45:04.675Z,99578.50
2023-07-26T06:46:56.280Z,99583.63
2023-07-26T06:48:47.843Z,99585.00
2023-07-26T06:50:40.599Z,99584.14
2023-07-26T06:52:32.994Z,99587.69
2023-07-26T06:54:24.327Z,99593.24
2023-07-26T06:56:16.213Z,99599.06
2023-07-26T06:58:08.001Z,99599.83
2023-07-26T06:59:59.836Z,99602.88
2023-07-26T07:01:51.689Z,99607.38
2023-07-26T07:03:43.282Z,99605.73
2023-07-26T07:05:36.620Z,99608.91
2023-07-26T07:07:28.374Z,99610.77
2023-07-26T07:09:20.177Z,99614.45
2023-07-26T07:11:11.946Z,99611.73
2023-07-26T07:13:03.635Z,99612.54
2023-07-26T07:14:55.795Z,99618.14
2023-07-26T07:16:47.417Z,99615.70
2023-07-26T07:18:39.244Z,99621.36
2023-07-26T07:20:31.117Z,99624.25
2023-07-26T07:22:23.806Z,99622.76
2023-07-26T07:24:15.171Z,99625.98
2023-07-26T07:26:06.749Z,99629.54
2023-07-26T07:27:58.296Z,99632.77
2023-07-26T07:29:50.234Z,99632.86
2023-07-26T07:31:42.245Z,99632.04
2023-07-26T07:33:33.920Z,99631.04
2023-07-26T07:35:25.776Z,99634.20
2023-07-26T07:37:17.401Z,99635.66
2023-07-26T07:39:10.427Z,99638.95
2023-07-26T07:41:02.476Z,99641.17
2023-07-26T07:42:54.370Z,99641.27
2023-07-26T07:44:46.210Z,99641.52
2023-07-26T07:46:41.438Z,99638.22
2023-07-26T07:48:35.955Z,99638.23
2023-07-26T07:50:27.535Z,99638.58
2023-07-26T07:52:19.242Z,99641.70
2023-07-26T07:54:11.014Z,99637.52
2023-07-26T07:56:02.719Z,99639.00
2023-07-26T07:57:54.444Z,99636.77
2023-07-26T07:59:46.199Z,99634.03
2023-07-26T08:01:38.498Z,99632.05
2023-07-26T08:03:30.775Z,99637.51
2023-07-26T08:05:22.357Z,99639.83
2023-07-26T08:07:14.023Z,99644.46
2023-07-26T08:09:06.404Z,99644.83
2023-07-26T08:10:58.039Z,99644.98
2023-07-26T08:12:49.904Z,99645.73
2023-07-26T08:14:52.040Z,99647.52
2023-07-26T08:16:43.852Z,99648.20
2023-07-26T08:18:35.795Z,99646.65
2023-07-26T08:20:27.735Z,99650.48
2023-07-26T08:22:19.356Z,99651.91
2023-07-26T08:24:11.417Z,99657.64
2023-07-26T08:26:04.857Z,99659.36
2023-07-26T08:27:56.885Z,99661.59
2023-07-26T08:29:48.270Z,99662.39
2023-07-26T08:31:40.198Z,99660.23
2023-07-26T08:33:33.872Z,99664.98
2023-07-26T08:35:25.496Z,99666.81
2023-07-26T08:37:19.928Z,99666.45
2023-07-26T08:39:25.671Z,99667.52
2023-07-26T08:41:22.208Z,99670.63
2023-07-26T08:43:14.988Z,99674.18
2023-07-26T08:45:08.169Z,99678.76
2023-07-26T08:47:00.982Z,99686.16
2023-07-26T08:48:52.749Z,99686.83
2023-07-26T08:50:44.416Z,99691.19
2023-07-26T08:52:36.210Z,99686.40
2023-07-26T08:54:29.726Z,99685.30
2023-07-26T08:56:21.743Z,99686.35
2023-07-26T08:58:13.493Z,99688.58
2023-07-26T09:00:07.188Z,99686.45
2023-07-26T09:02:02.904Z,99688.64
2023-07-26T09:03:58.876Z,99692.49
2023-07-26T09:06:11.666Z,99697.67
2023-07-26T09:08:03.129Z,99698.75
2023-07-26T09:09:55.028Z,99701.99
2023-07-26T09:11:51.819Z,99699.17
2023-07-26T09:13:43.873Z,99701.64
2023-07-26T09:15:37.773Z,99706.02
2023-07-26T09:17:42.902Z,99708.31
2023-07-26T09:19:39.203Z,99708.95
2023-07-26T09:21:33.113Z,99710.65
2023-07-26T09:23:25.153Z,99708.49
2023-07-26T09:25:31.719Z,99706.19
2023-07-26T09:27:23.191Z,99705.37
2023-07-26T09:29:17.169Z,99702.80
2023-07-26T09:31:08.716Z,99698.52
2023-07-26T09:33:02.301Z,99698.06
2023-07-26T09:34:53.817Z,99694.27
2023-07-26T09:36:49.614Z,99695.38
2023-07-26T09:38:44.327Z,99695.21
2023-07-26T09:40:38.708Z,99695.95
2023-07-26T09:42:46.901Z,99695.90
2023-07-26T09:44:38.983Z,99702.41
2023-07-26T09:46:30.760Z,99699.01
2023-07-26T09:48:22.399Z,99696.46
2023-07-26T09:52:24.053Z,99702.52
2023-07-26T09:54:17.492Z,99702.62
2023-07-26T09:56:10.021Z,99705.09
2023-07-26T09:58:02.412Z,99705.39
2023-07-26T10:00:02.699Z,99702.44
2023-07-26T10:01:56.129Z,99699.54
2023-07-26T10:03:52.060Z,99701.80
2023-07-26T10:05:46.319Z,99698.92
2023-07-26T10:07:38.597Z,99698.98
2023-07-26T10:09:33.395Z,99697.46
2023-07-26T10:11:26.311Z,99696.05
2023-07-26T10:13:21.036Z,99700.27
2023-07-26T10:15:14.685Z,99702.64
2023-07-26T10:17:06.765Z,99704.33
2023-07-26T10:18:59.740Z,99702.83
2023-07-26T10:20:51.945Z,99704.45
2023-07-26T10:22:44.387Z,99707.10
2023-07-26T10:24:37.697Z,99708.48
2023-07-26T10:26:31.924Z,99713.25
2023-07-26T10:28:24.268Z,99716.37
2023-07-26T10:30:15.827Z,99715.41
2023-07-26T10:32:08.827Z,99710.14
2023-07-26T10:34:00.267Z,99712.08
2023-07-26T10:35:52.357Z,99708.11
2023-07-26T10:37:47.740Z,99710.68
2023-07-26T10:39:40.360Z,99709.72
2023-07-26T10:41:32.604Z,99710.81
2023-07-26T10:43:23.952Z,99707.47
2023-07-26T10:45:45.499Z,99707.22
2023-07-26T10:47:51.955Z,99706.71
2023-07-26T10:49:50.310Z,99709.46
2023-07-26T10:51:51.991Z,99711.65
2023-07-26T10:53:43.373Z,99720.13
2023-07-26T10:55:35.325Z,99716.49
2023-07-26T10:57:33.331Z,99717.74
2023-07-26T10:59:27.708Z,99711.29
2023-07-26T11:01:46.251Z,99711.86
2023-07-26T11:03:43.253Z,99710.42
2023-07-26T11:05:39.720Z,99710.48
2023-07-26T11:07:56.512Z,99710.92
2023-07-26T11:09:51.878Z,99714.86
2023-07-26T11:11:54.304Z,99714.19
2023-07-26T11:13:46.038Z,99717.70
2023-07-26T11:16:12.037Z,99713.82
2023-07-26T11:17:51.652Z,99709.91
2023-07-26T11:19:50.425Z,99710.20
2023-07-26T11:21:44.147Z,99708.42
2023-07-26T11:23:35.704Z,99701.56
2023-07-26T11:25:27.371Z,99699.04
2023-07-26T11:27:19.299Z,99700.90
2023-07-26T11:29:11.541Z,99693.65
2023-07-26T11:31:03.380Z,99693.20
2023-07-26T11:32:55.446Z,99695.85
2023-07-26T11:34:54.764Z,99695.42
2023-07-26T11:36:46.091Z,99692.30
2023-07-26T11:38:42.862Z,99693.52
2023-07-26T11:40:44.281Z,99687.29
2023-07-26T11:42:36.388Z,99684.70
2023-07-26T11:44:27.834Z,99679.48
2023-07-26T11:46:29.767Z,99678.86
2023-07-26T11:48:21.893Z,99684.82
2023-07-26T11:50:19.505Z,99686.31
2023-07-26T11:52:18.053Z,99681.85
2023-07-26T11:54:12.353Z,99686.17
2023-07-26T11:56:05.349Z,99690.66
2023-07-26T11:57:56.861Z,99694.93
2023-07-26T11:59:48.585Z,99691.00
2023-07-26T12:01:41.146Z,99690.52
2023-07-26T12:03:33.554Z,99695.24
2023-07-26T12:05:29.397Z,99691.25
2023-07-26T12:07:20.872Z,99693.38
2023-07-26T12:09:13.308Z,99688.61
2023-07-26T12:11:06.798Z,99694.11
2023-07-26T12:12:59.529Z,99697.27
2023-07-26T12:14:51.420Z,99699.75
2023-07-26T12:16:48.642Z,99698.64
2023-07-26T12:18:52.983Z,99697.65
2023-07-26T12:21:03.810Z,99698.18
2023-07-26T12:22:59.928Z,99701.28
2023-07-26T12:24:52.988Z,99703.45
2023-07-26T12:26:49.196Z,99702.77
2023-07-26T12:28:40.864Z,99697.08
2023-07-26T12:30:32.688Z,99695.02
2023-07-26T12:32:24.476Z,99697.73
2023-07-26T12:34:16.757Z,99700.15
2023-07-26T12:36:08.872Z,99699.10
2023-07-26T12:38:09.503Z,99698.82
2023-07-26T12:40:00.951Z,99702.64
2023-07-26T12:41:53.571Z,99707.80
2023-07-26T12:43:45.892Z,99712.05
2023-07-26T12:45:37.403Z,99713.07
2023-07-26T12:47:30.701Z,99710.36
2023-07-26T12:49:22.628Z,99717.05
2023-07-26T12:51:14.410Z,99718.71
2023-07-26T12:53:07.758Z,99717.16
2023-07-26T12:54:59.154Z,99715.63
2023-07-26T12:56:50.634Z,99714.52
2023-07-26T12:59:00.602Z,99717.90
2023-07-26T13:00:53.475Z,99719.92
2023-07-26T13:02:45.502Z,99722.08
2023-07-26T13:04:37.565Z,99718.90
2023-07-26T13:06:29.084Z,99718.26
2023-07-26T13:08:20.612Z,99720.02
2023-07-26T13:10:12.052Z,99723.23
2023-07-26T13:12:04.594Z,99722.95
2023-07-26T13:13:55.808Z,99718.35
2023-07-26T13:15:47.428Z,99723.75
2023-07-26T13:17:38.908Z,99724.95
2023-07-26T13:19:30.618Z,99721.98
2023-07-26T13:21:22.244Z,99720.02
2023-07-26T13:23:14.478Z,99726.11
2023-07-26T13:25:06.909Z,99725.30
2023-07-26T13:26:59.227Z,99723.80
2023-07-26T13:28:50.986Z,99717.63
2023-07-26T13:30:42.362Z,99716.27
2023-07-26T13:32:34.153Z,99712.34
2023-07-26T13:34:25.891Z,99709.72
2023-07-26T13:36:21.236Z,99709.19
2023-07-26T13:38:12.984Z,99712.98
2023-07-26T13:40:07.092Z,99712.41
2023-07-26T13:41:58.742Z,99710.70
2023-07-26T13:43:50.447Z,99711.02
2023-07-26T13:45:42.544Z,99709.70
2023-07-26T13:47:34.982Z,99712.52
2023-07-26T13:49:26.400Z,99710.89
2023-07-26T13:51:18.017Z,99706.61
2023-07-26T13:53:09.749Z,99702.70
2023-07-26T13:55:01.489Z,99697.61
2023-07-26T13:56:53.268Z,99703.25
2023-07-26T13:58:46.940Z,99700.36
2023-07-26T14:00:40.331Z,99701.30
2023-07-26T14:02:31.982Z,99699.51
2023-07-26T14:04:23.705Z,99698.53
2023-07-26T14:06:16.381Z,99699.70
2023-07-26T14:08:07.691Z,99703.21
2023-07-26T14:09:59.565Z,99700.18
2023-07-26T14:11:51.129Z,99698.85
2023-07-26T14:13:42.731Z,99698.36
2023-07-26T14:15:34.245Z,99699.23
2023-07-26T14:17:26.407Z,99702.86
2023-07-26T14:19:18.734Z,99695.35
2023-07-26T14:21:12.331Z,99700.05
2023-07-26T14:23:03.854Z,99693.96
2023-07-26T14:24:55.603Z,99694.85
2023-07-26T14:26:47.112Z,99696.65
2023-07-26T14:28:38.910Z,99697.94
2023-07-26T14:30:30.629Z,99699.94
2023-07-26T14:32:22.158Z,99700.58
2023-07-26T14:34:13.545Z,99703.08
2023-07-26T14:36:05.210Z,99700.66
2023-07-26T14:37:56.725Z,99699.16
2023-07-26T14:39:50.614Z,99697.21
2023-07-26T14:41:42.612Z,99696.38
2023-07-26T14:43:33.810Z,99691.33
2023-07-26T14:45:25.500Z,99690.66
2023-07-26T14:47:17.121Z,99689.24
2023-07-26T14:49:08.666Z,99687.52
2023-07-26T14:51:00.348Z,99690.39
2023-07-26T14:52:51.770Z,99688.23
2023-07-26T14:54:43.538Z,99690.84
2023-07-26T14:56:36.269Z,99685.27
2023-07-26T14:58:27.675Z,99686.05
2023-07-26T15:00:19.031Z,99684.98
2023-07-26T15:02:10.730Z,99683.10
2023-07-26T15:04:03.818Z,99685.15
2023-07-26T15:05:55.449Z,99684.91
2023-07-26T15:07:46.970Z,99686.86
2023-07-26T15:09:38.547Z,99687.77
2023-07-26T15:11:30.333Z,99690.26
2023-07-26T15:13:22.128Z,99690.21
2023-07-26T15:15:14.217Z,99692.16
2023-07-26T15:17:05.763Z,99696.02
2023-07-26T15:18:56.984Z,99694.21
2023-07-26T15:20:48.483Z,99700.33
2023-07-26T15:22:39.793Z,99699.59
2023-07-26T15:24:31.468Z,99698.05
2023-07-26T15:26:23.118Z,99698.64
2023-07-26T15:28:14.840Z,99699.42
2023-07-26T15:30:06.967Z,99698.92
2023-07-26T15:31:58.561Z,99699.58
2023-07-26T15:33:50.520Z,99701.51
2023-07-26T15:35:41.639Z,99698.08
2023-07-26T15:37:33.289Z,99698.96
2023-07-26T15:39:24.906Z,99700.24
2023-07-26T15:41:17.108Z,99700.17
2023-07-26T15:43:22.898Z,99702.51
2023-07-26T15:49:03.692Z,99692.01
2023-07-26T15:50:56.898Z,99693.23
2023-07-26T15:52:48.439Z,99689.69
2023-07-26T15:54:39.766Z,99687.48
2023-07-26T15:56:31.434Z,99686.80
2023-07-26T15:58:28.987Z,99684.86
2023-07-26T16:00:20.908Z,99687.59
2023-07-26T16:02:13.162Z,99690.65
2023-07-26T16:06:17.308Z,99689.06
2023-07-26T16:08:11.154Z,99691.59
2023-07-26T16:10:02.700Z,99687.27
2023-07-26T16:13:48.344Z,99689.75
2023-07-26T16:16:23.554Z,99685.66
2023-07-26T16:23:33.888Z,99699.20
2023-07-26T16:25:25.012Z,99704.42
2023-07-26T16:27:16.170Z,99704.65
2023-07-26T16:29:07.408Z,99701.27
2023-07-26T16:30:59.196Z,99702.05
2023-07-26T16:32:50.575Z,99701.27
2023-07-26T16:34:42.249Z,99701.93
2023-07-26T16:36:33.589Z,99700.96
2023-07-26T16:38:24.741Z,99705.36
2023-07-26T16:40:16.556Z,99702.72
2023-07-26T16:42:07.758Z,99706.44
2023-07-26T16:43:59.651Z,99704.30
2023-07-26T16:45:50.826Z,99701.73
2023-07-26T16:47:43.262Z,99700.50
2023-07-26T16:49:34.972Z,99702.02
2023-07-26T16:51:26.168Z,99701.67
2023-07-26T16:53:17.236Z,99702.06
2023-07-26T16:55:08.543Z,99699.31
2023-07-26T16:56:59.781Z,99703.91
2023-07-26T16:58:51.456Z,99702.53
2023-07-26T17:00:43.431Z,99703.10
2023-07-26T17:02:35.568Z,99707.85
2023-07-26T17:04:27.789Z,99704.75
2023-07-26T17:06:20.807Z,99706.54
2023-07-26T17:08:14.251Z,99707.79
2023-07-26T17:10:06.729Z,99711.45
2023-07-26T17:11:58.237Z,99716.55
2023-07-26T17:13:49.353Z,99717.84
2023-07-26T17:15:40.509Z,99717.64
2023-07-26T17:17:31.958Z,99713.50
2023-07-26T17:19:23.609Z,99715.04
2023-07-26T17:21:16.038Z,99716.84
2023-07-26T17:23:07.533Z,99716.75
2023-07-26T17:24:59.005Z,99717.11
2023-07-26T17:26:50.530Z,99724.20
2023-07-26T17:28:41.736Z,99727.48
2023-07-26T17:30:33.339Z,99731.05
2023-07-26T17:32:24.668Z,99731.05
2023-07-26T17:34:16.333Z,99738.67
2023-07-26T17:36:12.286Z,99742.21
2023-07-26T17:38:03.453Z,99740.26
2023-07-26T17:39:55.243Z,99745.34
2023-07-26T17:41:46.952Z,99746.30
2023-07-26T17:43:38.406Z,99749.43
2023-07-26T17:45:30.357Z,99753.41
2023-07-26T17:47:22.047Z,99755.89
2023-07-26T17:49:13.446Z,99755.77
2023-07-26T17:51:05.588Z,99759.54
2023-07-26T17:52:58.028Z,99760.89
2023-07-26T17:54:49.504Z,99764.52
2023-07-26T17:56:40.901Z,99766.52
2023-07-26T17:58:32.527Z,99768.42
2023-07-26T18:00:23.930Z,99767.06
2023-07-26T18:02:15.291Z,99771.08
2023-07-26T18:04:06.999Z,99770.66
2023-07-26T18:05:59.673Z,99771.95
2023-07-26T18:07:51.409Z,99772.45
2023-07-26T18:09:42.692Z,99770.89
2023-07-26T18:11:34.379Z,99770.84
2023-07-26T18:13:26.749Z,99772.88
2023-07-26T18:15:17.823Z,99774.67
2023-07-26T18:17:09.053Z,99774.34
2023-07-26T18:19:00.239Z,99773.73
2023-07-26T18:20:55.135Z,99774.34
2023-07-26T18:22:46.892Z,99771.07
2023-07-26T18:24:39.253Z,99772.57
2023-07-26T18:26:30.367Z,99772.64
2023-07-26T18:28:21.973Z,99777.02
2023-07-26T18:30:13.681Z,99784.27
2023-07-26T18:32:05.949Z,99787.33
2023-07-26T18:33:57.791Z,99793.23
2023-07-26T18:35:49.292Z,99795.56
2023-07-26T18:37:41.480Z,99794.23
2023-07-26T18:39:32.744Z,99795.80
2023-07-26T18:41:24.396Z,99799.78
2023-07-26T18:43:15.638Z,99801.42
2023-07-26T18:45:07.695Z,99810.25
2023-07-26T18:46:59.140Z,99814.82
2023-07-26T18:48:50.649Z,99821.96
2023-07-26T18:50:42.536Z,99820.48
2023-07-26T18:52:36.617Z,99825.89
2023-07-26T18:54:28.397Z,99829.60
2023-07-26T18:56:20.008Z,99832.78
2023-07-26T18:58:11.659Z,99837.27
2023-07-26T19:00:03.256Z,99839.70
2023-07-26T19:01:54.295Z,99842.56
2023-07-26T19:03:46.191Z,99844.33
2023-07-26T19:05:39.800Z,99845.91
2023-07-26T19:07:31.484Z,99846.27
2023-07-26T19:09:23.014Z,99848.09
2023-07-26T19:11:15.029Z,99847.61
2023-07-26T19:13:07.345Z,99849.42
2023-07-26T19:14:58.372Z,99850.44
2023-07-26T19:16:50.295Z,99849.55
2023-07-26T19:18:41.849Z,99855.83
2023-07-26T19:20:33.648Z,99858.83
2023-07-26T19:22:25.410Z,99862.91
2023-07-26T19:24:16.382Z,99865.78
2023-07-26T19:26:11.744Z,99863.84
2023-07-26T19:28:03.871Z,99869.85
2023-07-26T19:29:55.578Z,99870.76
2023-07-26T19:31:47.092Z,99873.41
2023-07-26T19:33:38.393Z,99869.77
2023-07-26T19:35:30.139Z,99872.79
2023-07-26T19:37:21.723Z,99871.21
2023-07-26T19:39:13.052Z,99876.31
2023-07-26T19:41:16.508Z,99878.47
2023-07-26T19:43:08.654Z,99880.34
2023-07-26T19:44:59.991Z,99881.61
2023-07-26T19:46:51.700Z,99887.76
2023-07-26T19:48:44.449Z,99888.58
2023-07-26T19:50:35.950Z,99886.06
2023-07-26T19:52:27.589Z,99892.27
2023-07-26T19:54:19.552Z,99887.80
2023-07-26T19:56:10.938Z,99889.41
2023-07-26T19:58:02.630Z,99897.16
2023-07-26T19:59:54.191Z,99899.06
2023-07-26T20:01:46.887Z,99901.45
2023-07-26T20:03:38.373Z,99901.25
2023-07-26T20:05:29.647Z,99902.23
2023-07-26T20:07:20.909Z,99898.67
2023-07-26T20:09:12.690Z,99899.53
2023-07-26T20:11:04.488Z,99902.52
2023-07-26T20:12:56.017Z,99901.52
2023-07-26T20:14:47.638Z,99906.72
2023-07-26T20:16:40.077Z,99904.72
2023-07-26T20:18:31.314Z,99909.14
2023-07-26T20:20:22.922Z,99912.52
2023-07-26T20:22:14.893Z,99911.05
2023-07-26T20:24:06.983Z,99915.47
2023-07-26T20:25:58.424Z,99915.64
2023-07-26T20:27:49.590Z,99915.70
2023-07-26T20:29:41.511Z,99917.73
2023-07-26T20:31:33.063Z,99920.70
2023-07-26T20:33:24.875Z,99921.77
2023-07-26T20:35:16.751Z,99920.77
2023-07-26T20:37:08.430Z,99923.55
2023-07-26T20:38:59.988Z,99922.68
2023-07-26T20:40:51.272Z,99923.25
2023-07-26T20:42:42.281Z,99920.88
2023-07-26T20:44:33.487Z,99916.74
2023-07-26T20:46:25.054Z,99917.08
2023-07-26T20:48:16.737Z,99914.36
2023-07-26T20:50:09.183Z,99916.47
2023-07-26T20:52:00.287Z,99918.91
2023-07-26T20:53:51.729Z,99920.70
2023-07-26T20:55:43.344Z,99922.83
2023-07-26T20:57:34.353Z,99923.58
2023-07-26T20:59:26.124Z,99925.65
2023-07-26T21:01:18.040Z,99927.20
2023-07-26T21:03:09.826Z,99926.69
2023-07-26T21:05:01.485Z,99918.31
2023-07-26T21:06:53.138Z,99922.58
2023-07-26T21:08:44.172Z,99925.69
2023-07-26T21:10:35.869Z,99927.77
2023-07-26T21:12:27.246Z,99928.99
2023-07-26T21:14:18.450Z,99929.64
2023-07-26T21:16:10.289Z,99933.52
2023-07-26T21:18:02.266Z,99930.73
2023-07-26T21:19:53.919Z,99931.59
2023-07-26T21:21:45.216Z,99935.38
2023-07-26T21:23:36.767Z,99935.63
2023-07-26T21:25:28.422Z,99937.52
2023-07-26T21:27:20.018Z,99936.09
2023-07-26T21:29:11.585Z,99934.68
2023-07-26T21:31:03.103Z,99938.09
2023-07-26T21:32:54.478Z,99940.26
2023-07-26T21:34:45.796Z,99938.41
2023-07-26T21:36:36.934Z,99938.33
2023-07-26T21:38:28.373Z,99944.39
2023-07-26T21:40:20.079Z,99945.21
2023-07-26T21:42:11.723Z,99945.84
2023-07-26T21:44:03.093Z,99953.76
2023-07-26T21:45:54.911Z,99956.41
2023-07-26T21:47:45.989Z,99955.90
2023-07-26T21:49:37.429Z,99959.77
2023-07-26T21:51:29.401Z,99960.36
2023-07-26T21:53:20.867Z,99962.64
2023-07-26T21:55:12.894Z,99961.20
2023-07-26T21:57:04.572Z,99962.63
2023-07-26T21:58:55.906Z,99959.96
2023-07-26T22:00:48.302Z,99958.86
2023-07-26T22:02:39.737Z,99958.16
2023-07-26T22:04:31.150Z,99959.41
2023-07-26T22:06:23.337Z,99964.46
2023-07-26T22:08:15.520Z,99967.06
2023-07-26T22:10:07.373Z,99966.99
2023-07-26T22:11:58.801Z,99970.62
2023-07-26T22:13:50.382Z,99974.91
2023-07-26T22:15:41.787Z,99972.38
2023-07-26T22:17:33.171Z,99975.87
2023-07-26T22:19:25.232Z,99974.30